首页
METAR-TAF:

METAR-TAF

机场 :

博韦, 法国

纬度: 49-28N, 经度: 002-07E, 海拔: 109米

当前天气观测

该预报发布于17分钟前的01:30 UTC
风速15节,风向南转南东
温度 6°C
湿度 87%
气压 992 hPa
能见度10公里或以上
小雨

METAR: LFOB 140130Z AUTO 16015KT 9999 -RA OVC014/// ///TCU 06/04 Q0992 TEMPO 3000 RA BKN007 OVC013

时间: 02:47 (01:47 UTC)

预报

该预报发布于2小时和47分钟前的23:00 UTC
预报有效从14日的 00点(UTC)到 14日的 24点(UTC)
风速13节,风向南转南东
能见度10公里或以上
多云层高于1300英尺
短暂存在
从 14日的 00点(UTC)到 14日的 04点(UTC)
能見度: 3000
多云层高于700英尺
阴天层高于1300英尺
成为
从 14日的 08点(UTC)到 14日的 11点(UTC)
多云层高于2000英尺
成为
从 14日的 16点(UTC)到 14日的 18点(UTC)
风速2节,风向多变
成为
从 14日的 21点(UTC)到 14日的 23点(UTC)
能見度: 0300

TAF: LFOB 132300Z 1400/1424 16013KT 9999 BKN013 TEMPO 1400/1404 3000 RA BKN007 OVC013 BECMG 1408/1411 BKN020 BECMG 1416/1418 VRB02KT BECMG 1421/1423 0300 FG VV///

超过4000个机场的气象观测和天气预报(METAR&TAF报告)。

可查询的气象台以黄色和红色小点在地图上表示。

将鼠标移到小点上方,可查看气象台名称。

然后点击查看天气观测和预报。

如需切换地图:点击带黑十字的绿色按钮放大地图;点击带横线的绿色按钮缩小地图;或者点击绿色箭头查看邻近地区的地图。


METAR-TAF: